ADDS METAR Data INFO
IDs: Format: Raw Decoded Include TAF

Data at: 1417 UTC 12 Dec 2017

KHKS 121353Z 33004KT 10SM CLR 09/00 A3018 RMK AO2 SLP215 T00890000
KHKS 121253Z 33004KT 10SM CLR 08/M01 A3016 RMK AO2 SLP209 T00781006
KHKS 121153Z AUTO 32003KT 10SM CLR 08/M01 A3012 RMK AO2 SLP195 T00781011 10117 20078 53025
KHKS 121053Z AUTO 33005KT 10SM CLR 09/M01 A3009 RMK AO2 SLP185 T00891011
KHKS 120953Z AUTO 33004KT 10SM CLR 09/01 A3007 RMK AO2 SLP175 T00940006
KHKS 120853Z AUTO 32004KT 10SM CLR 11/01 A3005 RMK AO2 SLP169 T01060011 53012
KHKS 120753Z AUTO 31007KT 10SM CLR 11/02 A3003 RMK AO2 SLP163 T01110017
KHKS 120653Z AUTO 27008KT 10SM CLR 11/03 A3002 RMK AO2 SLP159 T01060028
KHKS 120553Z AUTO 25010KT 10SM CLR 12/03 A3001 RMK AO2 SLP157 T01170033 10139 20106 402000011 58013
KHKS 120453Z AUTO 24009KT 10SM CLR 12/03 A3003 RMK AO2 SLP163 T01170033
KHKS 120353Z AUTO 23010KT 10SM CLR 13/03 A3005 RMK AO2 SLP168 T01280028
KHKS 120253Z AUTO 23011KT 10SM CLR 13/03 A3005 RMK AO2 SLP171 T01330033 58002
KHKS 120153Z 20004KT 10SM CLR 11/02 A3005 RMK AO2 SLP172 T01060017
KHKS 120053Z 00000KT 10SM CLR 12/01 A3006 RMK AO2 SLP175 T01220011
KHKS 112353Z 19004KT 10SM CLR 13/01 A3006 RMK AO2 SLP173 T01280011 10200 20111 56012
KHKS 112253Z 00000KT 10SM CLR 17/M01 A3007 RMK AO2 SLP177 T01671006
KHKS 112153Z 22006KT 10SM CLR 18/00 A3007 RMK AO2 SLP179 T01830000
KHKS 112053Z 25010KT 10SM CLR 19/M01 A3009 RMK AO2 SLP184 T01941011 56026
KHKS 111953Z 24009KT 10SM CLR 20/00 A3011 RMK AO2 SLP191 T02000000
KHKS 111853Z 22008KT 10SM CLR 19/00 A3013 RMK AO2 SLP199 T01890000
KHKS 111753Z 20008KT 10SM CLR 17/01 A3017 RMK AO2 SLP211 T01670011 10167 20017 58023
KHKS 111653Z 25004KT 10SM CLR 14/02 A3021 RMK AO2 SLP226 T01390017
KHKS 111553Z 28007KT 10SM CLR 12/02 A3023 RMK AO2 SLP233 T01170017
KHKS 111453Z 25004KT 10SM CLR 09/03 A3024 RMK AO2 SLP236 T00940028 58002
KHKS 111353Z 00000KT 10SM CLR 06/02 A3024 RMK AO2 SLP237 T00560017
KHKS 111253Z 28003KT 10SM CLR 03/M01 A3024 RMK AO2 SLP238 T00331006
KHKS 111153Z AUTO 00000KT 10SM CLR 05/00 A3024 RMK AO2 SLP237 T00500000 10061 20011 55001
KHKS 111053Z AUTO 00000KT 10SM CLR 02/M01 A3024 RMK AO2 SLP235 T00171006
KHKS 110953Z AUTO 00000KT 10SM CLR 02/M01 A3024 RMK AO2 SLP235 T00221011
KHKS 110853Z AUTO 00000KT 10SM CLR 05/M01 A3025 RMK AO2 SLP238 T00501006 57012
KHKS 110753Z AUTO 00000KT 10SM CLR 04/M01 A3026 RMK AO2 SLP242 T00391011
KHKS 110653Z AUTO 14003KT 10SM CLR 04/M01 A3027 RMK AO2 SLP245 T00391011
KHKS 110553Z AUTO 14004KT 10SM CLR 03/M01 A3028 RMK AO2 SLP249 T00331011 10078 20028 401391028 58003
KHKS 110453Z AUTO 22003KT 10SM CLR 07/M02 A3029 RMK AO2 SLP251 T00671017
KHKS 110353Z AUTO 00000KT 10SM CLR 06/M02 A3030 RMK AO2 SLP257 T00611022
KHKS 110253Z 00000KT 10SM CLR 04/M02 A3029 RMK AO2 SLP253 T00391017 58001